Time;durP1;ratioP1;P1;durP2;ratioP2;P2;SDS_P1;SDS_P2;PMS_P1;PMS_P2;Temp;Humidity;BMP_temperature;BMP_pressure;BME280_temperature;BME280_humidity;BME280_pressure;Samples;Min_cycle;Max_cycle;Signal;HPM_P1;HPM_P2
2020/12/11 00:00:54;;;;;;;33.58;18.67;;;1.90;99.90;;;;;;3627537;39;20263;-73
2020/12/11 00:03:21;;;;;;;38.65;20.50;;;1.90;99.90;;;;;;3629227;32;20351;-73
2020/12/11 00:05:48;;;;;;;37.97;19.80;;;1.90;99.90;;;;;;3631175;39;20639;-73
2020/12/11 00:08:14;;;;;;;37.10;19.38;;;1.90;99.90;;;;;;3633604;39;20386;-73
2020/12/11 00:10:41;;;;;;;35.20;18.45;;;1.90;99.90;;;;;;3634455;39;20263;-73
2020/12/11 00:13:07;;;;;;;30.42;18.00;;;1.90;99.90;;;;;;3633519;39;20334;-73
2020/12/11 00:15:34;;;;;;;39.30;20.13;;;1.90;99.90;;;;;;3634070;39;20394;-73
2020/12/11 00:18:00;;;;;;;31.73;18.23;;;1.90;99.90;;;;;;3634084;39;20339;-73
2020/12/11 00:20:28;;;;;;;32.45;17.90;;;2.00;99.90;;;;;;3636876;39;20267;-73
2020/12/11 00:22:54;;;;;;;30.83;17.17;;;2.10;99.90;;;;;;3632082;39;20386;-73
2020/12/11 00:25:21;;;;;;;33.88;18.15;;;2.10;99.90;;;;;;3635616;39;20259;-73
2020/12/11 00:27:48;;;;;;;36.08;18.70;;;2.10;99.90;;;;;;3632293;39;20355;-73
2020/12/11 00:30:14;;;;;;;31.88;17.80;;;2.10;99.90;;;;;;3631960;39;20682;-73
2020/12/11 00:32:41;;;;;;;31.63;16.83;;;2.10;99.90;;;;;;3634740;39;20248;-74
2020/12/11 00:35:08;;;;;;;30.55;17.38;;;2.00;99.90;;;;;;3632115;39;20264;-74
2020/12/11 00:37:36;;;;;;;31.95;17.33;;;2.00;99.90;;;;;;3632033;39;20247;-74
2020/12/11 00:40:02;;;;;;;30.30;16.98;;;2.00;99.90;;;;;;3631994;39;20348;-73
2020/12/11 00:42:29;;;;;;;31.63;18.67;;;2.00;99.90;;;;;;3632333;39;20752;-73
2020/12/11 00:44:55;;;;;;;31.85;18.75;;;2.00;99.90;;;;;;3634447;39;20258;-73
2020/12/11 00:47:22;;;;;;;27.92;15.55;;;2.00;99.90;;;;;;3647637;31;20367;-73
2020/12/11 00:49:48;;;;;;;33.75;16.77;;;2.00;99.90;;;;;;3631706;39;20244;-73
2020/12/11 00:52:15;;;;;;;29.73;16.10;;;2.10;99.90;;;;;;3634759;39;20255;-73
2020/12/11 00:54:42;;;;;;;28.83;15.52;;;2.10;99.90;;;;;;3632048;39;20240;-74
2020/12/11 00:57:09;;;;;;;27.92;14.82;;;2.10;99.90;;;;;;3636369;39;20366;-74
2020/12/11 00:59:35;;;;;;;26.65;14.95;;;2.10;99.90;;;;;;3632340;39;20276;-74
2020/12/11 01:02:02;;;;;;;25.05;14.50;;;2.10;99.90;;;;;;3632037;39;20268;-73
2020/12/11 01:04:28;;;;;;;24.90;15.45;;;2.10;99.90;;;;;;3631629;39;20259;-73
2020/12/11 01:06:55;;;;;;;24.05;15.45;;;2.10;99.90;;;;;;3634547;39;20251;-73
2020/12/11 01:09:21;;;;;;;27.67;16.20;;;2.10;99.90;;;;;;3635623;39;20263;-73
2020/12/11 01:11:49;;;;;;;24.83;14.80;;;2.20;99.90;;;;;;3631238;39;20259;-74
2020/12/11 01:14:15;;;;;;;21.65;12.75;;;2.20;99.90;;;;;;3630715;39;20287;-74
2020/12/11 01:16:43;;;;;;;25.90;14.30;;;2.20;99.90;;;;;;3631469;39;20256;-74
2020/12/11 01:19:09;;;;;;;24.92;15.52;;;2.20;99.90;;;;;;3631313;39;20267;-74
2020/12/11 01:21:36;;;;;;;26.55;14.55;;;2.20;99.90;;;;;;3633542;39;20255;-73
2020/12/11 01:24:02;;;;;;;21.83;13.43;;;2.20;99.90;;;;;;3633154;39;20347;-73
2020/12/11 01:26:29;;;;;;;22.20;14.05;;;2.30;99.90;;;;;;3631494;39;20260;-73
2020/12/11 01:28:56;;;;;;;22.33;14.13;;;2.30;99.90;;;;;;3632744;39;20236;-74
2020/12/11 01:31:23;;;;;;;23.17;13.25;;;2.20;99.90;;;;;;3633337;39;20367;-74
2020/12/11 01:33:49;;;;;;;26.73;14.88;;;2.30;99.90;;;;;;3633167;39;20351;-74
2020/12/11 01:36:23;;;;;;;23.98;13.15;;;2.40;99.90;;;;;;3636110;39;20335;-74
2020/12/11 01:38:50;;;;;;;24.10;14.07;;;2.50;99.90;;;;;;3632910;39;20318;-74
2020/12/11 01:41:16;;;;;;;24.25;13.85;;;2.50;99.90;;;;;;3635638;39;20331;-73
2020/12/11 01:43:43;;;;;;;20.98;12.48;;;2.50;99.90;;;;;;3632371;39;20279;-74
2020/12/11 01:46:15;;;;;;;23.52;12.50;;;2.50;99.90;;;;;;3631412;39;20874;-74
2020/12/11 01:48:42;;;;;;;24.25;14.38;;;2.50;99.90;;;;;;3638429;39;20247;-73
2020/12/11 01:51:08;;;;;;;22.58;12.90;;;2.50;99.90;;;;;;3631124;39;20343;-73
2020/12/11 01:53:36;;;;;;;22.70;14.05;;;2.50;99.90;;;;;;3632595;39;20252;-73
2020/12/11 01:56:06;;;;;;;20.35;12.65;;;2.50;99.90;;;;;;3631466;39;20348;-73
2020/12/11 01:58:38;;;;;;;27.50;14.35;;;2.40;99.90;;;;;;3633253;39;20251;-73
2020/12/11 02:01:05;;;;;;;20.25;14.10;;;2.50;99.90;;;;;;3633757;39;20259;-73
2020/12/11 02:03:33;;;;;;;25.63;14.48;;;2.50;99.90;;;;;;3630719;39;20282;-73
2020/12/11 02:05:59;;;;;;;25.92;13.73;;;2.50;99.90;;;;;;3636767;31;20363;-73
2020/12/11 02:08:26;;;;;;;19.77;13.60;;;2.50;99.90;;;;;;3631840;39;20243;-73
2020/12/11 02:10:52;;;;;;;23.30;14.20;;;2.50;99.90;;;;;;3631371;39;20259;-73
2020/12/11 02:13:19;;;;;;;22.15;13.32;;;2.50;99.90;;;;;;3629519;39;20248;-74
2020/12/11 02:15:45;;;;;;;25.60;14.02;;;2.50;99.90;;;;;;3632610;39;20258;-73
2020/12/11 02:18:12;;;;;;;22.52;14.43;;;2.60;99.90;;;;;;3634781;39;20271;-73
2020/12/11 02:20:39;;;;;;;20.55;13.52;;;2.50;99.90;;;;;;3631083;39;20406;-73
2020/12/11 02:23:07;;;;;;;22.63;14.00;;;2.50;99.90;;;;;;3630791;39;20251;-74
2020/12/11 02:25:33;;;;;;;22.23;14.07;;;2.50;99.90;;;;;;3633684;39;20259;-74
2020/12/11 02:27:59;;;;;;;24.13;13.88;;;2.50;99.90;;;;;;3631133;39;20264;-73
2020/12/11 02:30:26;;;;;;;24.65;14.25;;;2.50;99.90;;;;;;3630817;39;20286;-74
2020/12/11 02:32:52;;;;;;;22.95;13.95;;;2.50;99.90;;;;;;3630931;39;20235;-73
2020/12/11 02:35:19;;;;;;;22.17;13.00;;;2.50;99.90;;;;;;3630954;39;20271;-74
2020/12/11 02:37:45;;;;;;;23.88;13.82;;;2.50;99.90;;;;;;3631181;39;20380;-73
2020/12/11 02:40:13;;;;;;;26.25;15.52;;;2.40;99.90;;;;;;3630552;39;20367;-73
2020/12/11 02:42:39;;;;;;;26.48;13.93;;;2.40;99.90;;;;;;3631984;39;20382;-73
2020/12/11 02:45:05;;;;;;;24.48;14.38;;;2.40;99.90;;;;;;3632360;39;20359;-73
2020/12/11 02:47:33;;;;;;;23.52;15.05;;;2.30;99.90;;;;;;3633465;39;20263;-73
2020/12/11 02:50:01;;;;;;;22.00;13.30;;;2.30;99.90;;;;;;3631506;39;21524;-73
2020/12/11 02:52:27;;;;;;;22.75;14.52;;;2.30;99.90;;;;;;3633944;39;20259;-73
2020/12/11 02:54:54;;;;;;;21.88;13.43;;;2.20;99.90;;;;;;3630383;39;20374;-73
2020/12/11 02:57:21;;;;;;;22.90;13.07;;;2.20;99.90;;;;;;3633440;39;20266;-73
2020/12/11 02:59:47;;;;;;;25.63;15.25;;;2.10;99.90;;;;;;3636005;39;20340;-73
2020/12/11 03:02:14;;;;;;;22.20;13.23;;;2.10;99.90;;;;;;3630396;39;20259;-73
2020/12/11 03:04:41;;;;;;;24.27;14.25;;;2.10;99.90;;;;;;3630733;39;20287;-73
2020/12/11 03:07:07;;;;;;;26.27;14.32;;;2.10;99.90;;;;;;3632605;39;20290;-73
2020/12/11 03:09:34;;;;;;;22.58;13.52;;;2.10;99.90;;;;;;3631387;39;20286;-73
2020/12/11 03:12:00;;;;;;;23.95;14.77;;;2.00;99.90;;;;;;3634111;39;20251;-73
2020/12/11 03:14:27;;;;;;;26.20;13.88;;;2.00;99.90;;;;;;3630694;39;20355;-73
2020/12/11 03:16:54;;;;;;;24.45;13.55;;;2.00;99.90;;;;;;3630139;39;20338;-73
2020/12/11 03:19:20;;;;;;;20.67;12.10;;;2.00;99.90;;;;;;3633296;39;20288;-73
2020/12/11 03:21:47;;;;;;;26.65;13.77;;;2.00;99.90;;;;;;3630228;39;20355;-73
2020/12/11 03:24:13;;;;;;;22.27;12.38;;;1.90;99.90;;;;;;3630892;39;20263;-73
2020/12/11 03:26:40;;;;;;;18.75;12.27;;;1.90;99.90;;;;;;3631611;39;20263;-73
2020/12/11 03:29:06;;;;;;;18.15;11.68;;;1.90;99.90;;;;;;3630497;39;20338;-73
2020/12/11 03:31:34;;;;;;;21.70;12.68;;;1.80;99.90;;;;;;3633174;39;20977;-74
2020/12/11 03:34:00;;;;;;;24.00;12.80;;;1.90;99.90;;;;;;3632933;39;20231;-74
2020/12/11 03:36:26;;;;;;;22.25;12.45;;;1.90;99.90;;;;;;3631270;39;20247;-74
2020/12/11 03:38:53;;;;;;;23.13;13.85;;;1.90;99.90;;;;;;3630224;39;20279;-73
2020/12/11 03:41:19;;;;;;;18.05;11.75;;;1.90;99.90;;;;;;3630503;39;20394;-74
2020/12/11 03:43:46;;;;;;;16.13;11.55;;;1.90;99.90;;;;;;3633827;39;20287;-73
2020/12/11 03:46:19;;;;;;;18.23;11.52;;;1.90;99.90;;;;;;3631643;39;20271;-73
2020/12/11 03:48:48;;;;;;;18.05;11.88;;;1.90;99.90;;;;;;3632156;39;20306;-73
2020/12/11 03:51:19;;;;;;;17.25;11.98;;;1.90;99.90;;;;;;3636013;39;20255;-73
2020/12/11 03:53:46;;;;;;;18.92;11.38;;;2.00;99.90;;;;;;3632083;39;20260;-74
2020/12/11 03:56:14;;;;;;;18.52;11.80;;;2.00;99.90;;;;;;3632351;39;20363;-73
2020/12/11 03:58:40;;;;;;;18.00;11.40;;;2.00;99.90;;;;;;3632649;39;20730;-73
2020/12/11 04:01:09;;;;;;;18.95;12.35;;;2.10;99.90;;;;;;3633297;39;20339;-73
2020/12/11 04:03:35;;;;;;;19.42;11.63;;;2.20;99.90;;;;;;3635646;39;20247;-73
2020/12/11 04:06:06;;;;;;;21.00;12.50;;;2.20;99.90;;;;;;3633494;39;20262;-73
2020/12/11 04:08:32;;;;;;;21.67;12.88;;;2.20;99.90;;;;;;3634297;39;20260;-73
2020/12/11 04:11:01;;;;;;;18.13;11.73;;;2.20;99.90;;;;;;3635853;39;20283;-73
2020/12/11 04:13:28;;;;;;;18.02;12.00;;;2.30;99.90;;;;;;3632736;39;20351;-73
2020/12/11 04:15:54;;;;;;;16.63;11.30;;;2.30;99.90;;;;;;3632322;39;20251;-73
2020/12/11 04:18:21;;;;;;;15.45;10.25;;;2.30;99.90;;;;;;3633065;39;20284;-73
2020/12/11 04:20:47;;;;;;;18.23;11.75;;;2.40;99.90;;;;;;3634043;39;20276;-73
2020/12/11 04:23:15;;;;;;;18.48;12.30;;;2.40;99.90;;;;;;3635174;39;20251;-73
2020/12/11 04:25:41;;;;;;;20.02;12.20;;;2.40;99.90;;;;;;3633326;39;20343;-73
2020/12/11 04:28:07;;;;;;;17.13;10.55;;;2.40;99.90;;;;;;3634314;39;20239;-73
2020/12/11 04:30:34;;;;;;;18.80;11.50;;;2.50;99.90;;;;;;3631929;39;20259;-73
2020/12/11 04:33:00;;;;;;;19.33;11.63;;;2.50;99.90;;;;;;3635791;39;20256;-73
2020/12/11 04:35:27;;;;;;;17.98;11.82;;;2.40;99.90;;;;;;3631703;39;20331;-73
2020/12/11 04:37:53;;;;;;;18.75;11.90;;;2.50;99.90;;;;;;3631942;39;20275;-73
2020/12/11 04:40:21;;;;;;;13.95;10.07;;;2.60;99.90;;;;;;3632381;39;20291;-73
2020/12/11 04:42:47;;;;;;;18.90;11.63;;;2.50;99.90;;;;;;3632548;39;20346;-73
2020/12/11 04:45:14;;;;;;;18.05;10.98;;;2.60;99.90;;;;;;3634824;39;20272;-73
2020/12/11 04:47:42;;;;;;;17.52;11.60;;;2.60;99.90;;;;;;3635837;39;20358;-73
2020/12/11 04:50:11;;;;;;;14.30;10.23;;;2.60;99.90;;;;;;3631933;39;20806;-74
2020/12/11 04:52:41;;;;;;;17.25;10.82;;;2.60;99.90;;;;;;3631819;39;20290;-73
2020/12/11 04:55:13;;;;;;;17.15;11.18;;;2.60;99.90;;;;;;3653776;31;20252;-73
2020/12/11 04:57:44;;;;;;;20.33;12.43;;;2.60;99.90;;;;;;3631113;39;20247;-73
2020/12/11 05:00:11;;;;;;;17.33;11.85;;;2.60;99.90;;;;;;3631334;39;20240;-73
2020/12/11 05:02:40;;;;;;;22.33;11.40;;;2.50;99.90;;;;;;3635048;39;20258;-73
2020/12/11 05:05:08;;;;;;;17.40;11.07;;;2.40;99.90;;;;;;3635675;31;20248;-73
2020/12/11 05:07:35;;;;;;;18.80;11.48;;;2.40;99.90;;;;;;3631641;39;20398;-73
2020/12/11 05:10:02;;;;;;;20.48;10.57;;;2.40;99.90;;;;;;3633301;39;20363;-74
2020/12/11 05:12:29;;;;;;;20.70;12.68;;;2.30;99.90;;;;;;3635694;39;20272;-74
2020/12/11 05:14:58;;;;;;;17.33;9.65;;;2.30;99.90;;;;;;3631565;39;20252;-74
2020/12/11 05:17:29;;;;;;;18.73;11.88;;;2.30;99.90;;;;;;3631332;39;21188;-74
2020/12/11 05:19:56;;;;;;;20.08;11.80;;;2.20;99.90;;;;;;3631421;39;20271;-74
2020/12/11 05:22:24;;;;;;;19.10;11.02;;;2.20;99.90;;;;;;3635187;39;20351;-74
2020/12/11 05:24:52;;;;;;;16.50;11.32;;;2.20;99.90;;;;;;3631229;39;20248;-74
2020/12/11 05:27:34;;;;;;;17.30;11.00;;;2.20;99.90;;;;;;3634592;39;20362;-73
2020/12/11 05:30:17;;;;;;;16.60;10.82;;;2.20;99.90;;;;;;3633277;39;20247;-73
2020/12/11 05:32:44;;;;;;;18.85;10.30;;;2.20;99.90;;;;;;3631439;39;20275;-74
2020/12/11 05:35:22;;;;;;;16.85;10.13;;;2.20;99.90;;;;;;3631066;39;20256;-74
2020/12/11 05:37:50;;;;;;;18.33;10.68;;;2.20;99.90;;;;;;3631345;39;20347;-74
2020/12/11 05:40:17;;;;;;;16.55;10.25;;;2.10;99.90;;;;;;3634846;39;20243;-74
2020/12/11 05:42:44;;;;;;;16.30;10.00;;;2.10;99.90;;;;;;3631298;39;20271;-73
2020/12/11 05:45:18;;;;;;;15.55;10.70;;;2.10;99.90;;;;;;3634703;39;20280;-74
2020/12/11 05:47:45;;;;;;;17.80;10.70;;;2.10;99.90;;;;;;3634410;39;20246;-74
2020/12/11 05:50:19;;;;;;;18.38;10.80;;;2.10;99.90;;;;;;3631092;39;20355;-73
2020/12/11 05:52:48;;;;;;;21.65;12.27;;;2.10;99.90;;;;;;3638047;31;20286;-73
2020/12/11 05:55:18;;;;;;;20.65;11.55;;;2.10;99.90;;;;;;3630754;39;20240;-74
2020/12/11 05:57:45;;;;;;;22.80;11.57;;;2.10;99.90;;;;;;3630676;39;20270;-74
2020/12/11 06:00:12;;;;;;;19.67;11.75;;;2.10;99.90;;;;;;3634894;39;20255;-74
2020/12/11 06:02:41;;;;;;;21.50;11.38;;;2.10;99.90;;;;;;3635795;31;20351;-73
2020/12/11 06:05:10;;;;;;;19.13;12.20;;;2.20;99.90;;;;;;3634375;39;20342;-74
2020/12/11 06:07:42;;;;;;;22.95;12.38;;;2.20;99.90;;;;;;3632938;39;20251;-74
2020/12/11 06:10:08;;;;;;;16.33;11.32;;;2.20;99.90;;;;;;3637374;39;20251;-74
2020/12/11 06:12:35;;;;;;;16.80;12.13;;;2.20;99.90;;;;;;3632924;39;20248;-74
2020/12/11 06:15:07;;;;;;;19.65;12.48;;;2.20;99.90;;;;;;3631236;39;20268;-74
2020/12/11 06:17:39;;;;;;;17.77;12.07;;;2.20;99.90;;;;;;3633399;39;20248;-74
2020/12/11 06:20:09;;;;;;;16.25;10.90;;;2.30;99.90;;;;;;3633493;39;20371;-74
2020/12/11 06:22:36;;;;;;;18.17;11.32;;;2.30;99.90;;;;;;3631091;39;20347;-74
2020/12/11 06:25:28;;;;;;;20.13;12.02;;;2.30;99.90;;;;;;3631537;39;20412;-74
2020/12/11 06:27:54;;;;;;;17.30;10.75;;;2.30;99.90;;;;;;3631025;39;20264;-74
2020/12/11 06:30:29;;;;;;;15.15;10.30;;;2.40;99.90;;;;;;3632785;39;20287;-74
2020/12/11 06:32:56;;;;;;;19.40;11.68;;;2.40;99.90;;;;;;3635492;39;20259;-73
2020/12/11 06:35:24;;;;;;;16.15;10.48;;;2.40;99.90;;;;;;3630771;39;20370;-73
2020/12/11 06:37:51;;;;;;;20.88;12.23;;;2.40;99.90;;;;;;3633490;39;20255;-73
2020/12/11 06:40:17;;;;;;;17.13;11.50;;;2.40;99.90;;;;;;3633992;39;20243;-74
2020/12/11 06:42:45;;;;;;;16.27;10.95;;;2.40;99.90;;;;;;3631081;39;20251;-73
2020/12/11 06:45:20;;;;;;;18.08;11.82;;;2.50;99.90;;;;;;3630606;39;20347;-74
2020/12/11 06:47:51;;;;;;;19.05;12.70;;;2.50;99.90;;;;;;3660590;31;20252;-73
2020/12/11 06:50:21;;;;;;;19.55;11.52;;;2.40;99.90;;;;;;3630994;39;20270;-74
2020/12/11 06:52:48;;;;;;;18.88;11.32;;;2.50;99.90;;;;;;3630986;39;20685;-74
2020/12/11 06:55:15;;;;;;;18.48;12.23;;;2.50;99.90;;;;;;3631378;39;20735;-74
2020/12/11 06:57:49;;;;;;;18.83;11.98;;;2.50;99.90;;;;;;3630957;39;20347;-74
2020/12/11 07:00:30;;;;;;;18.38;11.30;;;2.40;99.90;;;;;;3630118;39;20251;-73
2020/12/11 07:03:30;;;;;;;19.02;12.15;;;2.50;99.90;;;;;;3630661;39;20248;-73
2020/12/11 07:06:15;;;;;;;17.88;11.30;;;2.40;99.90;;;;;;3653084;31;20271;-74
2020/12/11 07:08:42;;;;;;;18.25;11.25;;;2.50;99.90;;;;;;3632462;39;20279;-75
2020/12/11 07:11:14;;;;;;;19.00;12.10;;;2.40;99.90;;;;;;3631559;39;20259;-74
2020/12/11 07:13:51;;;;;;;17.13;11.90;;;2.40;99.90;;;;;;3635336;39;20285;-74
2020/12/11 07:16:17;;;;;;;16.92;11.50;;;2.40;99.90;;;;;;3632807;39;20243;-74
2020/12/11 07:18:44;;;;;;;18.02;12.30;;;2.40;99.90;;;;;;3632768;39;21019;-74
2020/12/11 07:21:12;;;;;;;18.63;11.38;;;2.40;99.90;;;;;;3635673;39;20113;-74
2020/12/11 07:23:39;;;;;;;17.52;12.30;;;2.40;99.90;;;;;;3646167;31;20339;-74
2020/12/11 07:26:07;;;;;;;18.90;11.05;;;2.50;99.90;;;;;;3632682;39;20434;-74
2020/12/11 07:28:34;;;;;;;22.75;12.55;;;2.50;99.90;;;;;;3632693;39;20332;-74
2020/12/11 07:31:01;;;;;;;17.35;10.93;;;2.50;99.90;;;;;;3642344;31;20870;-74
2020/12/11 07:33:34;;;;;;;17.38;11.50;;;2.50;99.90;;;;;;3633510;39;20243;-74
2020/12/11 07:36:02;;;;;;;18.40;11.07;;;2.50;99.90;;;;;;3632487;39;20311;-74
2020/12/11 07:38:29;;;;;;;19.25;11.75;;;2.50;99.90;;;;;;3632844;39;20367;-74
2020/12/11 07:40:57;;;;;;;17.00;10.65;;;2.50;99.90;;;;;;3635488;39;20294;-74
2020/12/11 07:43:25;;;;;;;16.08;10.55;;;2.50;99.90;;;;;;3634698;39;20263;-75
2020/12/11 07:45:52;;;;;;;17.88;11.52;;;2.60;99.90;;;;;;3638412;39;20336;-75
2020/12/11 07:48:19;;;;;;;16.33;10.32;;;2.60;99.90;;;;;;3632561;39;20283;-74
2020/12/11 07:50:46;;;;;;;13.85;9.23;;;2.60;99.90;;;;;;3634977;39;20271;-75
2020/12/11 07:53:13;;;;;;;18.85;12.35;;;2.70;99.90;;;;;;3635159;39;20235;-74
2020/12/11 07:55:40;;;;;;;18.02;11.57;;;2.70;99.90;;;;;;3632516;39;20247;-74
2020/12/11 07:58:06;;;;;;;16.75;10.65;;;2.80;99.90;;;;;;3635537;39;20247;-75
2020/12/11 08:00:40;;;;;;;19.73;11.93;;;2.80;99.90;;;;;;3632909;39;20371;-75
2020/12/11 08:03:08;;;;;;;20.23;10.43;;;2.90;99.90;;;;;;3631907;39;20366;-75
2020/12/11 08:05:39;;;;;;;16.25;10.07;;;2.90;99.90;;;;;;3632581;39;20342;-75
2020/12/11 08:08:07;;;;;;;17.25;11.15;;;2.90;99.90;;;;;;3631329;39;20239;-75
2020/12/11 08:10:39;;;;;;;16.75;11.02;;;3.00;99.90;;;;;;3632135;39;20259;-75
2020/12/11 08:13:14;;;;;;;14.75;10.60;;;3.10;99.90;;;;;;3632069;39;20251;-74
2020/12/11 08:15:42;;;;;;;16.25;10.13;;;3.10;99.90;;;;;;3632851;39;20243;-74
2020/12/11 08:18:19;;;;;;;17.23;11.15;;;3.10;99.90;;;;;;3635208;39;20414;-75
2020/12/11 08:20:48;;;;;;;16.70;10.98;;;3.20;99.90;;;;;;3650762;31;20767;-74
2020/12/11 08:23:19;;;;;;;16.00;11.43;;;3.30;99.90;;;;;;3635011;39;20287;-75
2020/12/11 08:25:46;;;;;;;20.30;11.82;;;3.30;99.90;;;;;;3632353;39;20286;-74
2020/12/11 08:28:13;;;;;;;18.38;12.80;;;3.30;99.90;;;;;;3655100;31;20279;-75
2020/12/11 08:30:41;;;;;;;14.95;10.38;;;3.30;99.90;;;;;;3635108;39;20255;-75
2020/12/11 08:33:11;;;;;;;20.40;11.40;;;3.40;99.90;;;;;;3632290;39;20327;-75
2020/12/11 08:35:38;;;;;;;16.10;11.00;;;3.40;99.90;;;;;;3636685;31;20343;-74
2020/12/11 08:38:06;;;;;;;18.85;11.95;;;3.40;99.90;;;;;;3634338;39;20251;-74
2020/12/11 08:40:45;;;;;;;20.02;12.27;;;3.50;99.90;;;;;;3636308;39;20259;-74
2020/12/11 08:43:16;;;;;;;15.93;10.48;;;3.50;99.90;;;;;;3634007;39;20243;-74
2020/12/11 08:45:55;;;;;;;14.70;10.73;;;3.60;99.90;;;;;;3648960;31;20783;-74
2020/12/11 08:48:38;;;;;;;14.32;10.48;;;3.70;99.90;;;;;;3650791;31;20415;-75
2020/12/11 08:51:06;;;;;;;18.15;12.15;;;3.70;99.90;;;;;;3631781;39;20295;-75
2020/12/11 08:53:36;;;;;;;16.10;10.23;;;3.90;99.90;;;;;;3634348;39;20344;-76
2020/12/11 08:56:06;;;;;;;18.70;11.07;;;3.90;99.90;;;;;;3636013;31;20223;-76
2020/12/11 08:58:32;;;;;;;14.32;9.98;;;4.00;99.90;;;;;;3637663;39;20251;-78
2020/12/11 09:01:00;;;;;;;15.88;11.60;;;3.90;99.90;;;;;;3631360;39;20347;-77
2020/12/11 09:03:27;;;;;;;14.27;10.80;;;3.90;99.90;;;;;;3638049;39;20371;-77
2020/12/11 09:05:53;;;;;;;15.85;11.13;;;4.00;99.90;;;;;;3633951;39;20275;-78
2020/12/11 09:08:20;;;;;;;15.45;10.60;;;4.00;99.90;;;;;;3635205;39;20272;-76
2020/12/11 09:10:46;;;;;;;16.08;11.48;;;4.10;99.90;;;;;;3631915;39;20272;-77
2020/12/11 09:13:13;;;;;;;14.95;9.65;;;4.10;99.90;;;;;;3634879;39;20307;-77
2020/12/11 09:15:39;;;;;;;15.38;10.50;;;4.20;99.90;;;;;;3631421;39;20251;-76
2020/12/11 09:18:07;;;;;;;17.77;12.10;;;4.20;99.90;;;;;;3644840;31;20275;-76
2020/12/11 09:20:33;;;;;;;15.60;11.20;;;4.30;99.90;;;;;;3635822;39;20279;-75
2020/12/11 09:23:00;;;;;;;14.43;10.55;;;4.40;99.90;;;;;;3635236;39;20359;-75
2020/12/11 09:25:26;;;;;;;14.70;11.13;;;4.40;99.90;;;;;;3637599;39;20259;-76
2020/12/11 09:28:02;;;;;;;15.68;11.93;;;4.40;99.90;;;;;;3639094;39;20394;-76
2020/12/11 09:30:31;;;;;;;17.65;11.40;;;4.40;99.90;;;;;;3642933;31;20777;-76
2020/12/11 09:33:03;;;;;;;14.25;9.85;;;4.50;99.90;;;;;;3640885;39;20290;-76
2020/12/11 09:35:31;;;;;;;13.70;9.65;;;4.50;99.90;;;;;;3640080;31;20235;-76
2020/12/11 09:37:58;;;;;;;14.68;11.02;;;4.60;99.90;;;;;;3655524;31;20330;-75
2020/12/11 09:40:33;;;;;;;15.27;11.23;;;4.70;99.90;;;;;;3635389;39;20251;-75
2020/12/11 09:45:52;;;;;;;13.05;9.73;;;4.70;99.90;;;;;;3654989;31;20389;-78
2020/12/11 09:48:33;;;;;;;12.40;9.85;;;4.70;99.90;;;;;;3658526;31;20305;-75
2020/12/11 09:51:18;;;;;;;19.13;10.18;;;4.70;99.90;;;;;;3636832;39;20340;-75
2020/12/11 09:56:31;;;;;;;15.63;9.88;;;4.60;99.90;;;;;;3648391;31;20247;-75
2020/12/11 09:59:00;;;;;;;13.80;10.15;;;4.70;99.90;;;;;;3636782;39;20256;-76
2020/12/11 10:01:31;;;;;;;14.45;9.82;;;4.70;99.90;;;;;;3637393;39;20274;-76
2020/12/11 10:03:57;;;;;;;12.93;9.57;;;4.80;99.90;;;;;;3631281;39;20399;-76
2020/12/11 10:06:26;;;;;;;15.70;10.07;;;4.80;99.90;;;;;;3632027;39;20379;-76
2020/12/11 10:08:52;;;;;;;13.75;9.98;;;4.90;99.90;;;;;;3642085;31;20274;-76
2020/12/11 10:11:20;;;;;;;13.88;9.70;;;5.00;99.90;;;;;;3636430;39;20266;-75
2020/12/11 10:13:47;;;;;;;14.40;9.55;;;5.00;99.90;;;;;;3637680;31;20258;-76
2020/12/11 10:16:17;;;;;;;12.13;9.32;;;5.10;99.90;;;;;;3636338;39;20259;-76
2020/12/11 10:18:43;;;;;;;11.68;9.30;;;5.00;99.90;;;;;;3637629;39;20271;-75
2020/12/11 10:21:10;;;;;;;14.05;8.93;;;5.00;99.90;;;;;;3635975;39;20354;-76
2020/12/11 10:23:38;;;;;;;17.63;10.23;;;5.00;99.90;;;;;;3638304;39;20243;-76
2020/12/11 10:26:04;;;;;;;11.98;8.90;;;4.90;99.90;;;;;;3635306;39;20278;-76
2020/12/11 10:28:31;;;;;;;13.77;10.70;;;4.90;99.90;;;;;;3635940;39;20343;-76
2020/12/11 10:30:58;;;;;;;13.27;9.23;;;4.90;99.90;;;;;;3638145;39;20248;-76
2020/12/11 10:33:24;;;;;;;13.55;9.80;;;4.80;99.90;;;;;;3637799;39;20266;-76
2020/12/11 10:35:51;;;;;;;16.90;10.48;;;4.80;99.90;;;;;;3636172;31;20354;-76
2020/12/11 10:38:19;;;;;;;14.98;10.05;;;4.80;99.90;;;;;;3636229;39;20264;-76
2020/12/11 10:40:46;;;;;;;11.95;9.35;;;4.90;99.90;;;;;;3636560;39;20266;-76
2020/12/11 10:43:13;;;;;;;13.13;9.88;;;4.90;99.90;;;;;;3635928;31;20275;-75
2020/12/11 10:45:39;;;;;;;12.38;9.00;;;4.90;99.90;;;;;;3635402;39;20263;-76
2020/12/11 10:48:06;;;;;;;18.70;10.73;;;5.00;99.90;;;;;;3632846;39;20366;-76
2020/12/11 10:50:32;;;;;;;15.60;9.70;;;5.00;99.90;;;;;;3631365;39;20244;-75
2020/12/11 10:52:59;;;;;;;12.75;9.38;;;5.00;99.90;;;;;;3633423;39;20299;-75
2020/12/11 10:55:26;;;;;;;12.00;8.88;;;5.00;99.90;;;;;;3636508;39;20251;-75
2020/12/11 10:57:53;;;;;;;13.10;9.32;;;5.00;99.90;;;;;;3638166;31;20294;-75
2020/12/11 11:00:20;;;;;;;15.18;9.30;;;5.10;99.90;;;;;;3635175;39;20378;-75
2020/12/11 11:22:18;;;;;;;12.77;9.38;;;5.40;99.90;;;;;;3630261;31;20645;-76
2020/12/11 11:27:33;;;;;;;12.63;8.50;;;5.50;99.90;;;;;;3638895;31;20276;-76
2020/12/11 11:29:59;;;;;;;14.60;9.32;;;5.60;99.90;;;;;;3632745;39;20267;-73
2020/12/11 11:32:27;;;;;;;14.65;9.52;;;5.60;99.90;;;;;;3633157;39;20378;-76
2020/12/11 11:34:53;;;;;;;13.32;8.40;;;5.60;99.90;;;;;;3636170;39;20291;-75
2020/12/11 11:37:21;;;;;;;10.45;8.27;;;5.60;99.90;;;;;;3634315;39;20370;-76
2020/12/11 11:39:49;;;;;;;13.70;9.25;;;5.70;99.90;;;;;;3641506;31;20281;-75
2020/12/11 11:42:15;;;;;;;10.57;8.18;;;5.70;99.90;;;;;;3633708;39;20285;-75
2020/12/11 11:44:50;;;;;;;13.80;9.80;;;5.50;99.90;;;;;;3634164;39;20263;-75
2020/12/11 11:47:17;;;;;;;13.73;9.68;;;5.40;99.90;;;;;;3634676;31;20278;-75
2020/12/11 11:52:34;;;;;;;17.60;9.55;;;5.30;99.90;;;;;;3629569;32;20317;-75
2020/12/11 11:55:02;;;;;;;16.63;11.50;;;5.20;99.90;;;;;;3631671;39;20295;-75
2020/12/11 11:57:29;;;;;;;16.00;9.13;;;5.20;99.90;;;;;;3633063;39;20255;-75
2020/12/11 11:59:55;;;;;;;14.23;8.40;;;5.20;99.90;;;;;;3635112;39;20358;-75
2020/12/11 12:02:21;;;;;;;10.77;8.18;;;5.20;99.90;;;;;;3633379;39;20275;-75
2020/12/11 12:04:48;;;;;;;14.40;9.07;;;5.20;99.90;;;;;;3629378;39;20252;-75
2020/12/11 12:07:15;;;;;;;12.63;9.18;;;5.20;99.90;;;;;;3640527;31;20364;-75
2020/12/11 12:09:42;;;;;;;13.98;9.48;;;5.20;99.90;;;;;;3632684;39;20244;-75
2020/12/11 12:12:09;;;;;;;14.85;8.90;;;5.20;99.90;;;;;;3633327;39;20260;-75
2020/12/11 12:14:36;;;;;;;14.73;10.00;;;5.30;99.90;;;;;;3626247;39;20263;-75
2020/12/11 12:17:05;;;;;;;11.30;8.48;;;5.20;99.90;;;;;;3626177;39;20295;-75
2020/12/11 12:19:35;;;;;;;15.68;9.95;;;5.10;99.90;;;;;;3648538;31;20347;-75
2020/12/11 12:28:08;;;;;;;12.15;8.15;;;5.20;99.90;;;;;;3623553;39;20294;-77
2020/12/11 12:30:35;;;;;;;16.98;10.02;;;5.30;99.90;;;;;;3626231;39;20274;-77
2020/12/11 12:35:48;;;;;;;12.95;8.80;;;5.20;99.90;;;;;;3610931;32;20252;-77
2020/12/11 12:38:20;;;;;;;15.13;9.23;;;5.20;99.90;;;;;;3624811;39;20247;-76
2020/12/11 12:42:16;;;;;;;12.45;9.23;;;5.10;99.90;;;;;;3624046;39;20316;-74
2020/12/11 12:43:38;;;;;;;17.83;10.05;;;5.00;99.90;;;;;;3624771;32;20267;-78
2020/12/11 12:46:06;;;;;;;14.23;8.70;;;5.00;99.90;;;;;;3624979;39;20295;-77
2020/12/11 12:48:32;;;;;;;12.63;8.60;;;5.00;99.90;;;;;;3624193;39;20355;-77
2020/12/11 12:50:59;;;;;;;17.17;9.70;;;5.10;99.90;;;;;;3623001;39;20271;-76
2020/12/11 12:53:25;;;;;;;13.45;8.55;;;5.10;99.90;;;;;;3621599;39;20336;-76
2020/12/11 12:58:35;;;;;;;13.45;8.60;;;5.30;99.90;;;;;;3621337;32;20325;-77
2020/12/11 13:01:15;;;;;;;11.45;7.65;;;5.30;99.90;;;;;;3630337;39;20653;-75
2020/12/11 13:06:28;;;;;;;14.95;8.77;;;5.30;99.90;;;;;;3649055;32;20860;-75
2020/12/11 13:08:54;;;;;;;13.35;8.18;;;5.30;99.90;;;;;;3627276;39;20911;-75
2020/12/11 13:11:21;;;;;;;12.10;8.18;;;5.20;99.90;;;;;;3627740;39;20295;-75
2020/12/11 13:16:52;;;;;;;16.23;8.52;;;5.30;99.90;;;;;;3628959;32;20271;-75
2020/12/11 13:19:21;;;;;;;11.90;8.20;;;5.30;99.90;;;;;;3625313;39;20263;-74
2020/12/11 13:21:58;;;;;;;13.02;8.18;;;5.30;99.90;;;;;;3653536;31;20322;-74
2020/12/11 13:27:16;;;;;;;11.15;8.32;;;5.40;99.90;;;;;;3634187;32;20830;-75
2020/12/11 13:29:43;;;;;;;11.05;8.18;;;5.40;99.90;;;;;;3625154;39;20288;-74
2020/12/11 13:32:10;;;;;;;12.43;7.55;;;5.50;99.90;;;;;;3627898;39;20276;-75
2020/12/11 13:34:36;;;;;;;11.13;7.03;;;5.40;99.90;;;;;;3628653;39;20276;-75